Time;durP1;ratioP1;P1;durP2;ratioP2;P2;SDS_P1;SDS_P2;PMS_P1;PMS_P2;Temp;Humidity;BMP_temperature;BMP_pressure;BME280_temperature;BME280_humidity;BME280_pressure;Samples;Min_cycle;Max_cycle;Signal;HPM_P1;HPM_P2
2023/02/13 00:01:26;;;;;;;;;;;;;;;7.71;88.80;103264.78;4107170;28;20028;-65
2023/02/13 00:03:27;;;;;;;;;;;;;;;7.71;88.81;103259.41;4107843;28;20444;-63
2023/02/13 00:05:29;;;;;;;;;;;;;;;7.71;88.94;103251.34;4107214;28;20017;-65
2023/02/13 00:07:31;;;;;;;;;;;;;;;7.71;89.28;103256.72;4108299;28;20025;-65
2023/02/13 00:09:33;;;;;;;;;;;;;;;7.70;89.45;103261.25;4107632;28;20025;-65
2023/02/13 00:11:37;;;;;;;;;;;;;;;7.70;89.40;103250.47;4107467;28;20013;-64
2023/02/13 00:13:39;;;;;;;;;;;;;;;7.69;88.96;103254.13;4107031;28;20045;-65
2023/02/13 00:15:41;;;;;;;;;;;;;;;7.71;89.05;103259.41;4107398;28;20017;-64
2023/02/13 00:17:43;;;;;;;;;;;;;;;7.71;88.67;103259.41;4108415;28;20030;-64
2023/02/13 00:19:44;;;;;;;;;;;;;;;7.72;88.42;103261.16;4106057;28;20022;-65
2023/02/13 00:21:46;;;;;;;;;;;;;;;7.73;88.84;103265.56;4107442;28;20029;-65
2023/02/13 00:23:48;;;;;;;;;;;;;;;7.72;88.75;103262.00;4107845;28;20017;-65
2023/02/13 00:25:50;;;;;;;;;;;;;;;7.72;89.04;103263.84;4107716;28;20013;-64
2023/02/13 00:27:55;;;;;;;;;;;;;;;7.71;89.13;103265.69;4107103;28;20009;-64
2023/02/13 00:29:57;;;;;;;;;;;;;;;7.72;88.85;103266.53;4107362;28;20550;-64
2023/02/13 00:32:00;;;;;;;;;;;;;;;7.72;88.85;103255.75;4090919;29;20062;-65
2023/02/13 00:34:02;;;;;;;;;;;;;;;7.72;88.59;103266.53;4121328;28;20021;-65
2023/02/13 00:36:05;;;;;;;;;;;;;;;7.72;88.95;103271.91;4105373;28;20030;-64
2023/02/13 00:38:07;;;;;;;;;;;;;;;7.72;89.06;103266.53;4107438;28;20026;-65
2023/02/13 00:40:09;;;;;;;;;;;;;;;7.72;89.34;103266.53;4107078;28;20801;-65
2023/02/13 00:42:11;;;;;;;;;;;;;;;7.72;88.80;103258.47;4106632;28;20033;-65
2023/02/13 00:44:15;;;;;;;;;;;;;;;7.71;88.88;103260.28;4122031;28;20337;-63
2023/02/13 00:46:17;;;;;;;;;;;;;;;7.71;88.64;103260.28;4090710;29;20032;-65
2023/02/13 00:48:19;;;;;;;;;;;;;;;7.71;88.72;103254.91;4105912;28;20033;-65
2023/02/13 00:50:21;;;;;;;;;;;;;;;7.69;88.77;103256.81;4106719;28;20444;-65
2023/02/13 00:52:23;;;;;;;;;;;;;;;7.69;88.67;103255.97;4108081;28;20455;-65
2023/02/13 00:54:25;;;;;;;;;;;;;;;7.67;88.92;103255.19;4121298;28;20013;-64
2023/02/13 00:56:27;;;;;;;;;;;;;;;7.66;88.90;103254.31;4121643;28;20379;-65
2023/02/13 00:58:29;;;;;;;;;;;;;;;7.66;88.87;103261.53;4107772;28;20493;-65
2023/02/13 01:00:33;;;;;;;;;;;;;;;7.65;88.93;103262.47;4104853;28;20017;-65
2023/02/13 01:02:35;;;;;;;;;;;;;;;7.64;88.74;103250.00;4106382;28;20021;-64
2023/02/13 01:04:38;;;;;;;;;;;;;;;7.63;88.40;103254.50;4106979;28;20085;-62
2023/02/13 01:06:40;;;;;;;;;;;;;;;7.64;88.75;103258.94;4107975;28;20037;-65
2023/02/13 01:08:42;;;;;;;;;;;;;;;7.63;88.38;103256.34;4107423;28;20012;-65
2023/02/13 01:10:44;;;;;;;;;;;;;;;7.62;88.71;103260.88;4106670;28;20361;-64
2023/02/13 01:12:47;;;;;;;;;;;;;;;7.62;88.44;103263.56;4105933;28;20024;-64
2023/02/13 01:14:49;;;;;;;;;;;;;;;7.62;88.19;103259.97;4105867;28;19938;-65
2023/02/13 01:16:54;;;;;;;;;;;;;;;7.62;88.33;103262.66;4106533;28;20025;-64
2023/02/13 01:18:56;;;;;;;;;;;;;;;7.61;88.23;103263.66;4107308;28;20439;-65
2023/02/13 01:20:59;;;;;;;;;;;;;;;7.59;88.18;103261.06;4105485;28;20717;-64
2023/02/13 01:23:01;;;;;;;;;;;;;;;7.58;87.82;103268.25;4121203;28;20024;-64
2023/02/13 01:25:06;;;;;;;;;;;;;;;7.58;88.02;103262.88;4121049;28;19984;-64
2023/02/13 01:27:09;;;;;;;;;;;;;;;7.57;87.81;103254.91;4106267;28;20016;-64
2023/02/13 01:29:12;;;;;;;;;;;;;;;7.56;87.92;103264.78;4107321;28;20013;-63
2023/02/13 01:31:14;;;;;;;;;;;;;;;7.54;87.96;103258.66;4106014;28;20010;-64
2023/02/13 01:33:18;;;;;;;;;;;;;;;7.55;87.77;103260.41;4104979;28;20020;-65
2023/02/13 01:35:20;;;;;;;;;;;;;;;7.54;87.49;103253.28;4105407;28;19926;-65
2023/02/13 01:37:22;;;;;;;;;;;;;;;7.54;87.65;103255.97;4121187;28;20029;-65
2023/02/13 01:39:25;;;;;;;;;;;;;;;7.53;87.54;103256.06;4106853;28;20037;-65
2023/02/13 01:41:27;;;;;;;;;;;;;;;7.53;87.81;103253.38;4105412;28;20544;-65
2023/02/13 01:43:43;;;;;;;;;;;;;;;7.53;87.49;103256.91;4105740;28;20037;-64
2023/02/13 01:45:46;;;;;;;;;;;;;;;7.53;87.48;103256.06;4106628;28;19926;-64
2023/02/13 01:47:49;;;;;;;;;;;;;;;7.53;87.28;103256.91;4108153;28;20008;-64
2023/02/13 01:50:17;;;;;;;;;;;;;;;7.53;87.20;103259.59;4105069;28;20040;-63
2023/02/13 01:52:22;;;;;;;;;;;;;;;7.53;87.09;103254.22;4106239;28;20408;-64
2023/02/13 01:54:29;;;;;;;;;;;;;;;7.54;87.08;103255.97;4105850;28;20366;-64
2023/02/13 01:56:33;;;;;;;;;;;;;;;7.54;86.66;103255.97;4104916;28;20033;-65
2023/02/13 01:58:35;;;;;;;;;;;;;;;7.56;86.72;103261.25;4088932;28;20033;-64
2023/02/13 02:00:37;;;;;;;;;;;;;;;7.54;86.47;103250.59;4103787;28;20021;-64
2023/02/13 02:02:42;;;;;;;;;;;;;;;7.53;86.30;103254.22;4105344;28;20022;-64
2023/02/13 02:04:45;;;;;;;;;;;;;;;7.52;86.43;103249.81;4104086;28;20014;-64
2023/02/13 02:06:53;;;;;;;;;;;;;;;7.50;86.18;103246.34;4118578;28;20476;-64
2023/02/13 02:09:08;;;;;;;;;;;;;;;7.51;85.99;103252.59;4104559;28;20372;-64
2023/02/13 02:11:11;;;;;;;;;;;;;;;7.50;86.46;103249.03;4104390;28;20033;-64
2023/02/13 02:13:17;;;;;;;;;;;;;;;7.50;86.27;103248.19;4105345;28;20866;-64
2023/02/13 02:15:20;;;;;;;;;;;;;;;7.50;86.51;103253.56;4120982;28;20511;-65
2023/02/13 02:17:22;;;;;;;;;;;;;;;7.49;86.29;103243.75;4089059;28;20026;-65
2023/02/13 02:19:27;;;;;;;;;;;;;;;7.50;86.67;103249.03;4120300;28;20025;-64
2023/02/13 02:21:48;;;;;;;;;;;;;;;7.50;86.29;103254.41;4106561;28;19937;-65
2023/02/13 02:23:58;;;;;;;;;;;;;;;7.52;86.64;103248.94;4105784;28;20008;-65
2023/02/13 02:26:17;;;;;;;;;;;;;;;7.52;86.52;103252.50;4119974;28;20426;-65
2023/02/13 02:28:22;;;;;;;;;;;;;;;7.52;86.08;103251.63;4104660;28;20016;-64
2023/02/13 02:30:48;;;;;;;;;;;;;;;7.52;86.20;103257.00;4104260;28;20452;-65
2023/02/13 02:33:08;;;;;;;;;;;;;;;7.52;86.17;103257.91;4056462;29;20019;-65
2023/02/13 02:35:16;;;;;;;;;;;;;;;7.52;86.10;103257.00;4104816;28;20017;-65
2023/02/13 02:37:22;;;;;;;;;;;;;;;7.53;86.28;103256.06;4120071;28;20029;-65
2023/02/13 02:39:26;;;;;;;;;;;;;;;7.51;86.10;103258.84;4104912;28;20037;-65
2023/02/13 02:41:42;;;;;;;;;;;;;;;7.52;86.23;103262.38;4118025;28;20005;-65
2023/02/13 02:43:51;;;;;;;;;;;;;;;7.51;86.62;103258.84;4118285;28;19926;-65
2023/02/13 02:45:54;;;;;;;;;;;;;;;7.52;86.60;103265.97;4119033;28;20012;-65
2023/02/13 02:50:26;;;;;;;;;;;;;;;7.52;86.67;103268.66;4103498;28;20014;-65
2023/02/13 02:52:34;;;;;;;;;;;;;;;7.52;86.61;103271.34;4105042;28;20387;-65
2023/02/13 02:57:06;;;;;;;;;;;;;;;7.51;86.41;103269.59;4090825;28;20021;-65
2023/02/13 03:06:12;;;;;;;;;;;;;;;7.52;86.63;103259.69;4075259;28;19938;-65
2023/02/13 03:13:17;;;;;;;;;;;;;;;7.51;86.65;103263.38;4105724;28;20021;-63
2023/02/13 03:15:17;;;;;;;;;;;;;;;7.50;86.70;103264.31;4104723;28;20073;-63
2023/02/13 03:22:19;;;;;;;;;;;;;;;7.46;87.16;103262.75;4090925;28;20026;-63
2023/02/13 03:24:23;;;;;;;;;;;;;;;7.47;86.89;103267.19;4105005;28;20021;-63
2023/02/13 03:26:32;;;;;;;;;;;;;;;7.46;86.95;103266.34;4105593;28;20045;-64
2023/02/13 03:30:57;;;;;;;;;;;;;;;7.45;87.29;103261.06;4103859;28;20445;-63
2023/02/13 03:33:01;;;;;;;;;;;;;;;7.46;87.24;103266.34;4105276;28;20049;-64
2023/02/13 03:39:53;;;;;;;;;;;;;;;7.45;87.65;103266.44;4085029;28;20437;-63
2023/02/13 03:41:56;;;;;;;;;;;;;;;7.44;87.68;103265.53;4105043;28;20014;-64
2023/02/13 03:44:07;;;;;;;;;;;;;;;7.45;87.61;103266.44;4105125;28;20022;-64
2023/02/13 03:46:09;;;;;;;;;;;;;;;7.44;87.50;103264.69;4104581;28;20546;-64
2023/02/13 03:50:04;;;;;;;;;;;;;;;7.43;87.89;103263.84;4105726;28;20014;-64
2023/02/13 03:50:32;;;;;;;;;;;;;;;7.44;87.95;103259.31;4104681;28;20424;-62
2023/02/13 03:52:36;;;;;;;;;;;;;;;7.45;87.69;103263.75;4105185;28;19926;-65
2023/02/13 03:59:19;;;;;;;;;;;;;;;7.44;87.78;103253.94;4102542;28;20025;-65
2023/02/13 04:01:22;;;;;;;;;;;;;;;7.42;88.00;103259.41;4105237;28;20020;-65
2023/02/13 04:03:25;;;;;;;;;;;;;;;7.42;88.21;103255.88;4105579;28;20021;-65
2023/02/13 04:05:28;;;;;;;;;;;;;;;7.42;87.84;103255.88;4105028;28;20030;-65
2023/02/13 04:07:30;;;;;;;;;;;;;;;7.42;87.84;103259.41;4105114;28;20025;-65
2023/02/13 04:09:35;;;;;;;;;;;;;;;7.43;88.03;103260.25;4104892;28;20008;-64
2023/02/13 04:11:37;;;;;;;;;;;;;;;7.43;87.51;103254.88;4104707;28;20033;-65
2023/02/13 04:13:39;;;;;;;;;;;;;;;7.42;87.47;103256.72;4104609;28;20025;-65
2023/02/13 04:15:42;;;;;;;;;;;;;;;7.39;87.45;103254.22;4103744;28;20017;-65
2023/02/13 04:17:45;;;;;;;;;;;;;;;7.38;87.70;103247.09;4104900;28;20365;-65
2023/02/13 04:19:47;;;;;;;;;;;;;;;7.36;87.54;103254.41;4103542;28;20368;-65
2023/02/13 04:21:50;;;;;;;;;;;;;;;7.33;87.53;103252.75;4103719;28;20032;-65
2023/02/13 04:23:52;;;;;;;;;;;;;;;7.32;87.69;103251.06;4104985;28;20028;-65
2023/02/13 04:25:55;;;;;;;;;;;;;;;7.32;87.60;103247.47;4104903;28;20022;-65
2023/02/13 04:27:57;;;;;;;;;;;;;;;7.31;87.79;103249.31;4104239;28;20590;-65
2023/02/13 04:29:59;;;;;;;;;;;;;;;7.31;87.45;103248.47;4104008;28;20364;-65
2023/02/13 04:32:01;;;;;;;;;;;;;;;7.31;87.32;103251.16;4107768;28;20030;-65
2023/02/13 04:34:03;;;;;;;;;;;;;;;7.31;87.45;103254.69;4106997;28;20365;-65
2023/02/13 04:36:05;;;;;;;;;;;;;;;7.31;87.23;103246.63;4107369;28;20355;-65
2023/02/13 04:38:07;;;;;;;;;;;;;;;7.31;87.18;103246.63;4107644;28;20037;-65
2023/02/13 04:40:09;;;;;;;;;;;;;;;7.30;87.39;103242.19;4107444;28;20486;-65
2023/02/13 04:42:13;;;;;;;;;;;;;;;7.30;87.17;103238.66;4106654;28;20017;-65
2023/02/13 04:44:14;;;;;;;;;;;;;;;7.30;87.39;103244.03;4106632;28;20029;-65
2023/02/13 04:46:16;;;;;;;;;;;;;;;7.29;87.44;103235.09;4106344;28;20021;-65
2023/02/13 04:48:18;;;;;;;;;;;;;;;7.30;87.38;103235.97;4107983;28;20132;-64
2023/02/13 04:50:20;;;;;;;;;;;;;;;7.29;87.36;103242.28;4107099;28;20025;-65
2023/02/13 04:52:22;;;;;;;;;;;;;;;7.29;87.38;103237.78;4107133;28;20025;-65
2023/02/13 04:54:24;;;;;;;;;;;;;;;7.28;87.39;103238.75;4107100;28;20021;-65
2023/02/13 04:56:26;;;;;;;;;;;;;;;7.29;87.26;103234.22;4107304;28;20473;-64
2023/02/13 04:58:30;;;;;;;;;;;;;;;7.27;87.03;103233.47;4107544;28;20026;-65
2023/02/13 05:00:32;;;;;;;;;;;;;;;7.25;86.79;103230.88;4106733;28;20445;-65
2023/02/13 05:02:33;;;;;;;;;;;;;;;7.26;86.81;103240.66;4106045;28;20025;-65
2023/02/13 05:04:35;;;;;;;;;;;;;;;7.26;86.72;103237.97;4106864;28;20041;-64
2023/02/13 05:06:37;;;;;;;;;;;;;;;7.22;86.69;103231.94;4104714;28;20448;-65
2023/02/13 05:08:40;;;;;;;;;;;;;;;7.20;86.93;103241.91;4104187;28;20092;-64
2023/02/13 05:10:41;;;;;;;;;;;;;;;7.18;87.15;103235.75;4105467;28;20970;-64
2023/02/13 05:12:43;;;;;;;;;;;;;;;7.18;87.32;103232.22;4107813;28;20020;-64
2023/02/13 05:14:47;;;;;;;;;;;;;;;7.18;87.24;103240.28;4106978;28;20025;-64
2023/02/13 05:16:49;;;;;;;;;;;;;;;7.17;87.42;103239.41;4105762;28;20590;-64
2023/02/13 05:18:53;;;;;;;;;;;;;;;7.17;87.26;103242.09;4105524;28;20025;-65
2023/02/13 05:23:23;;;;;;;;;;;;;;;7.16;86.91;103244.88;4106947;28;20554;-64
2023/02/13 05:25:26;;;;;;;;;;;;;;;7.16;86.96;103252.94;4103306;28;20005;-65
2023/02/13 05:27:27;;;;;;;;;;;;;;;7.14;86.98;103244.97;4106722;28;20391;-64
2023/02/13 05:29:28;;;;;;;;;;;;;;;7.15;86.81;103249.38;4105061;28;20487;-65
2023/02/13 05:31:32;;;;;;;;;;;;;;;7.14;86.69;103246.78;4106278;28;19930;-65
2023/02/13 05:33:34;;;;;;;;;;;;;;;7.13;86.72;103243.25;4106103;28;20088;-65
2023/02/13 05:35:36;;;;;;;;;;;;;;;7.11;86.69;103253.19;4104882;28;20049;-65
2023/02/13 05:37:38;;;;;;;;;;;;;;;7.11;86.91;103255.88;4106863;28;20017;-63
2023/02/13 05:39:40;;;;;;;;;;;;;;;7.10;87.03;103254.19;4105139;28;20036;-64
2023/02/13 05:41:42;;;;;;;;;;;;;;;7.10;86.91;103256.88;4104127;28;20021;-65
2023/02/13 05:43:44;;;;;;;;;;;;;;;7.08;86.79;103258.75;4106029;28;20021;-65
2023/02/13 05:45:47;;;;;;;;;;;;;;;7.07;86.90;103251.69;4104448;28;20053;-65
2023/02/13 05:47:50;;;;;;;;;;;;;;;7.06;86.81;103249.09;4103992;28;20005;-65
2023/02/13 05:49:52;;;;;;;;;;;;;;;7.05;86.49;103256.25;4105447;28;20781;-64
2023/02/13 05:51:54;;;;;;;;;;;;;;;7.05;86.46;103258.94;4104622;28;20013;-66
2023/02/13 05:53:58;;;;;;;;;;;;;;;7.06;86.43;103265.22;4104255;28;20021;-66
2023/02/13 05:56:00;;;;;;;;;;;;;;;7.08;86.25;103255.22;4103795;28;20017;-66
2023/02/13 05:58:02;;;;;;;;;;;;;;;7.09;85.67;103267.72;4105529;28;20049;-67
2023/02/13 06:00:05;;;;;;;;;;;;;;;7.03;85.47;103255.50;4103975;28;20653;-67
2023/02/13 06:02:07;;;;;;;;;;;;;;;7.12;85.25;103264.84;4105456;28;20013;-66
2023/02/13 06:04:10;;;;;;;;;;;;;;;7.14;85.18;103273.66;4106126;28;20008;-67
2023/02/13 06:06:12;;;;;;;;;;;;;;;7.14;84.92;103265.59;4105732;28;20005;-66
2023/02/13 06:08:14;;;;;;;;;;;;;;;7.12;84.15;103278.28;4099357;28;20025;-66
2023/02/13 06:10:16;;;;;;;;;;;;;;;7.12;84.00;103276.44;4099296;28;20698;-66
2023/02/13 06:12:18;;;;;;;;;;;;;;;7.12;83.66;103275.59;4102160;28;20025;-66
2023/02/13 06:14:20;;;;;;;;;;;;;;;7.12;83.88;103273.75;4104037;28;20017;-65
2023/02/13 06:16:22;;;;;;;;;;;;;;;7.13;83.38;103278.19;4104197;28;20331;-66
2023/02/13 06:18:24;;;;;;;;;;;;;;;7.12;83.47;103281.81;4104627;28;20026;-66
2023/02/13 06:20:27;;;;;;;;;;;;;;;7.13;83.41;103280.88;4103692;28;20017;-66
2023/02/13 06:22:29;;;;;;;;;;;;;;;7.12;83.03;103281.81;4106688;28;20017;-66
2023/02/13 06:24:31;;;;;;;;;;;;;;;7.12;82.69;103281.81;4085381;28;19936;-66
2023/02/13 06:26:33;;;;;;;;;;;;;;;7.14;82.83;103287.09;4103660;28;20025;-66
2023/02/13 06:28:36;;;;;;;;;;;;;;;7.13;82.39;103288.06;4105448;28;20021;-66
2023/02/13 06:30:38;;;;;;;;;;;;;;;7.12;82.37;103281.81;4105822;28;20029;-66
2023/02/13 06:32:40;;;;;;;;;;;;;;;7.11;81.95;103292.66;4105787;28;20021;-66
2023/02/13 06:34:42;;;;;;;;;;;;;;;7.09;82.12;103287.38;4104736;28;20014;-66
2023/02/13 06:36:45;;;;;;;;;;;;;;;7.09;82.05;103282.00;4105552;28;20488;-66
2023/02/13 06:38:47;;;;;;;;;;;;;;;7.09;81.70;103275.78;4106320;28;20013;-66
2023/02/13 06:40:49;;;;;;;;;;;;;;;7.07;81.60;103283.94;4104915;28;20030;-66
2023/02/13 06:42:51;;;;;;;;;;;;;;;7.06;81.50;103286.69;4105480;28;20017;-66
2023/02/13 06:44:53;;;;;;;;;;;;;;;7.04;81.43;103286.78;4073006;29;20099;-66
2023/02/13 06:46:55;;;;;;;;;;;;;;;7.03;81.90;103293.13;4105519;28;20033;-66
2023/02/13 06:48:57;;;;;;;;;;;;;;;7.02;81.68;103291.38;4105703;28;20464;-67
2023/02/13 06:51:00;;;;;;;;;;;;;;;7.02;81.83;103294.94;4104620;28;20021;-66
2023/02/13 06:53:04;;;;;;;;;;;;;;;6.99;81.75;103284.38;4105670;28;20020;-66
2023/02/13 06:55:06;;;;;;;;;;;;;;;6.99;81.67;103294.25;4105621;28;20024;-66
2023/02/13 06:57:08;;;;;;;;;;;;;;;6.98;81.75;103296.06;4104954;28;20021;-66
2023/02/13 06:59:09;;;;;;;;;;;;;;;6.98;81.94;103295.22;4105565;28;20017;-66
2023/02/13 07:01:11;;;;;;;;;;;;;;;6.97;81.95;103299.72;4105288;28;20363;-66
2023/02/13 07:03:13;;;;;;;;;;;;;;;6.96;82.20;103299.78;4105535;28;20014;-65
2023/02/13 07:05:15;;;;;;;;;;;;;;;6.97;82.33;103301.53;4105045;28;20107;-64
2023/02/13 07:07:18;;;;;;;;;;;;;;;6.98;82.44;103303.28;4105192;28;20021;-66
2023/02/13 07:09:21;;;;;;;;;;;;;;;6.97;82.45;103304.22;4105205;28;20034;-65
2023/02/13 07:11:23;;;;;;;;;;;;;;;6.95;82.75;103303.47;4105562;28;20050;-65
2023/02/13 07:13:25;;;;;;;;;;;;;;;6.94;83.03;103299.88;4103081;28;20022;-65
2023/02/13 07:15:27;;;;;;;;;;;;;;;6.95;83.02;103300.78;4102715;28;20013;-65
2023/02/13 07:17:30;;;;;;;;;;;;;;;6.95;83.07;103298.09;4103302;28;20028;-65
2023/02/13 07:19:32;;;;;;;;;;;;;;;6.93;83.00;103302.66;4104515;28;20022;-65
2023/02/13 07:21:35;;;;;;;;;;;;;;;6.92;83.41;103300.94;4104642;28;20020;-66
2023/02/13 07:23:37;;;;;;;;;;;;;;;6.90;83.88;103308.25;4104561;28;20485;-65
2023/02/13 07:25:40;;;;;;;;;;;;;;;6.91;83.86;103302.78;4104921;28;20017;-64
2023/02/13 07:27:42;;;;;;;;;;;;;;;6.93;84.39;103302.66;4105298;28;20025;-66
2023/02/13 07:29:44;;;;;;;;;;;;;;;6.94;84.22;103305.25;4104624;28;20025;-65
2023/02/13 07:31:46;;;;;;;;;;;;;;;6.95;84.54;103309.69;4104708;28;20025;-65
2023/02/13 07:33:48;;;;;;;;;;;;;;;6.96;84.33;103310.53;4105661;28;20014;-65
2023/02/13 07:35:52;;;;;;;;;;;;;;;6.94;84.62;103302.56;4104699;28;20017;-65
2023/02/13 07:37:54;;;;;;;;;;;;;;;6.94;84.89;103307.09;4104753;28;20077;-65
2023/02/13 07:39:56;;;;;;;;;;;;;;;6.94;85.18;103309.78;4104666;28;20013;-65
2023/02/13 07:41:59;;;;;;;;;;;;;;;6.93;85.29;103305.34;4105347;28;20444;-65
2023/02/13 07:44:01;;;;;;;;;;;;;;;6.94;85.74;103302.56;4119423;28;20020;-65
2023/02/13 07:46:04;;;;;;;;;;;;;;;6.96;85.48;103303.38;4104878;28;20379;-65
2023/02/13 07:48:06;;;;;;;;;;;;;;;6.98;85.47;103311.34;4104766;28;20456;-65
2023/02/13 07:50:08;;;;;;;;;;;;;;;6.98;85.82;103322.09;4104744;28;20037;-65
2023/02/13 07:52:10;;;;;;;;;;;;;;;6.98;85.63;103314.88;4104819;28;20016;-65
2023/02/13 07:54:12;;;;;;;;;;;;;;;6.99;85.55;103308.56;4105001;28;20361;-65
2023/02/13 07:56:14;;;;;;;;;;;;;;;7.01;85.59;103322.75;4103688;28;20010;-65
2023/02/13 07:58:17;;;;;;;;;;;;;;;7.02;85.59;103324.50;4104798;28;20017;-66
2023/02/13 08:00:20;;;;;;;;;;;;;;;7.00;85.63;103322.84;4119231;28;19966;-65
2023/02/13 08:02:22;;;;;;;;;;;;;;;7.01;85.98;103322.75;4104726;28;20449;-66
2023/02/13 08:04:24;;;;;;;;;;;;;;;7.02;85.63;103324.50;4104898;28;20025;-64
2023/02/13 08:06:26;;;;;;;;;;;;;;;7.00;85.87;103318.34;4107282;28;20440;-65
2023/02/13 08:08:28;;;;;;;;;;;;;;;7.00;86.13;103322.84;4107649;28;20021;-66
2023/02/13 08:12:49;;;;;;;;;;;;;;;7.03;86.32;103320.84;4108057;28;20029;-66
2023/02/13 08:14:54;;;;;;;;;;;;;;;7.03;86.20;103320.84;4106613;28;20017;-65
2023/02/13 08:16:56;;;;;;;;;;;;;;;7.05;86.28;103320.75;4107206;28;20028;-65
2023/02/13 08:18:58;;;;;;;;;;;;;;;7.06;86.38;103327.88;4107677;28;20456;-65
2023/02/13 08:21:01;;;;;;;;;;;;;;;7.07;86.32;103326.94;4107357;28;20017;-65
2023/02/13 08:23:03;;;;;;;;;;;;;;;7.08;86.01;103331.31;4107870;28;20045;-65
2023/02/13 08:25:07;;;;;;;;;;;;;;;7.09;86.16;103319.63;4107254;28;20026;-65
2023/02/13 08:27:13;;;;;;;;;;;;;;;7.10;86.10;103324.06;4107193;28;20112;-65
2023/02/13 08:29:15;;;;;;;;;;;;;;;7.11;86.01;103331.16;4107794;28;20028;-66
2023/02/13 08:31:18;;;;;;;;;;;;;;;7.13;85.87;103328.38;4107073;28;20021;-65
2023/02/13 08:33:20;;;;;;;;;;;;;;;7.13;86.39;103325.69;4107002;28;20017;-64
2023/02/13 08:35:28;;;;;;;;;;;;;;;7.13;85.96;103329.25;4107463;28;20026;-65
2023/02/13 08:37:30;;;;;;;;;;;;;;;7.14;86.35;103320.22;4107244;28;20037;-66
2023/02/13 08:39:32;;;;;;;;;;;;;;;7.16;86.05;103322.81;4107042;28;20100;-64
2023/02/13 08:41:34;;;;;;;;;;;;;;;7.15;85.97;103331.84;4108039;28;20029;-65
2023/02/13 08:43:36;;;;;;;;;;;;;;;7.15;86.07;103329.16;4107115;28;20048;-66
2023/02/13 08:45:38;;;;;;;;;;;;;;;7.15;85.98;103327.31;4106570;28;20009;-66
2023/02/13 08:47:41;;;;;;;;;;;;;;;7.16;85.90;103328.19;4107132;28;20373;-65
2023/02/13 08:49:43;;;;;;;;;;;;;;;7.15;85.83;103332.69;4106654;28;20017;-65
2023/02/13 08:51:45;;;;;;;;;;;;;;;7.16;85.82;103329.06;4107725;28;20014;-66
2023/02/13 08:53:47;;;;;;;;;;;;;;;7.15;86.30;103319.25;4107444;28;20025;-65
2023/02/13 08:55:53;;;;;;;;;;;;;;;7.16;85.75;103317.44;4107114;28;20029;-65
2023/02/13 08:57:55;;;;;;;;;;;;;;;7.16;86.12;103321.00;4107443;28;20052;-65
2023/02/13 08:59:56;;;;;;;;;;;;;;;7.16;85.94;103322.81;4106802;28;20013;-65
2023/02/13 09:01:58;;;;;;;;;;;;;;;7.15;86.04;103321.09;4106367;28;20377;-65
2023/02/13 09:04:02;;;;;;;;;;;;;;;7.16;86.00;103323.69;4106994;28;20053;-66
2023/02/13 09:06:04;;;;;;;;;;;;;;;7.17;86.18;103322.72;4107090;28;20029;-65
2023/02/13 09:08:07;;;;;;;;;;;;;;;7.17;85.92;103327.25;4090487;28;20017;-65
2023/02/13 09:10:09;;;;;;;;;;;;;;;7.17;86.02;103328.09;4106799;28;20019;-65
2023/02/13 09:12:12;;;;;;;;;;;;;;;7.19;85.73;103328.00;4106545;28;20362;-65
2023/02/13 09:14:14;;;;;;;;;;;;;;;7.20;85.86;103329.75;4107614;28;20024;-65
2023/02/13 09:16:16;;;;;;;;;;;;;;;7.21;85.77;103336.88;4106251;28;20804;-66
2023/02/13 09:18:18;;;;;;;;;;;;;;;7.21;85.98;103329.66;4106553;28;20013;-65
2023/02/13 09:20:21;;;;;;;;;;;;;;;7.21;85.83;103331.47;4105905;28;20369;-64
2023/02/13 09:22:23;;;;;;;;;;;;;;;7.22;85.93;103334.09;4106797;28;20008;-65
2023/02/13 09:24:26;;;;;;;;;;;;;;;7.21;85.83;103324.28;4121140;28;19933;-65
2023/02/13 09:26:28;;;;;;;;;;;;;;;7.24;85.80;103338.47;4106967;28;20026;-65
2023/02/13 09:28:32;;;;;;;;;;;;;;;7.25;85.67;103337.53;4106012;28;20016;-65
2023/02/13 09:30:34;;;;;;;;;;;;;;;7.24;85.76;103336.69;4105329;28;20025;-65
2023/02/13 09:32:37;;;;;;;;;;;;;;;7.24;85.73;103334.00;4106597;28;20386;-65
2023/02/13 09:34:38;;;;;;;;;;;;;;;7.25;85.62;103340.22;4106343;28;20021;-65
2023/02/13 09:36:42;;;;;;;;;;;;;;;7.26;85.65;103342.81;4106243;28;20013;-64
2023/02/13 09:38:44;;;;;;;;;;;;;;;7.27;85.52;103349.06;4106551;28;20444;-65
2023/02/13 09:40:47;;;;;;;;;;;;;;;7.27;85.61;103344.53;4120243;28;20014;-64
2023/02/13 09:42:49;;;;;;;;;;;;;;;7.29;85.71;103348.00;4107057;28;20024;-65
2023/02/13 09:44:51;;;;;;;;;;;;;;;7.29;85.40;103341.75;4105847;28;20445;-64
2023/02/13 09:46:53;;;;;;;;;;;;;;;7.30;85.39;103351.56;4105990;28;20033;-65
2023/02/13 09:48:57;;;;;;;;;;;;;;;7.31;85.33;103337.16;4106238;28;20024;-64
2023/02/13 09:50:59;;;;;;;;;;;;;;;7.27;85.76;103336.47;4105310;28;20025;-64
2023/02/13 09:53:03;;;;;;;;;;;;;;;7.32;85.62;103344.25;4106446;28;20009;-65
2023/02/13 09:55:13;;;;;;;;;;;;;;;7.33;85.20;103335.25;4106152;28;20018;-65
2023/02/13 09:57:17;;;;;;;;;;;;;;;7.35;85.54;103333.31;4106279;28;20013;-65
2023/02/13 09:59:24;;;;;;;;;;;;;;;7.37;85.42;103336.81;4105525;28;20021;-65
2023/02/13 10:01:26;;;;;;;;;;;;;;;7.39;85.34;103329.50;4107215;28;20021;-65
2023/02/13 10:03:29;;;;;;;;;;;;;;;7.40;85.35;103328.56;4106595;28;20033;-65
2023/02/13 10:05:40;;;;;;;;;;;;;;;7.42;85.14;103329.31;4105938;28;20036;-65
2023/02/13 10:07:43;;;;;;;;;;;;;;;7.42;85.09;103332.00;4106409;28;20025;-65
2023/02/13 10:09:48;;;;;;;;;;;;;;;7.44;85.14;103334.59;4106025;28;20017;-65
2023/02/13 10:12:03;;;;;;;;;;;;;;;7.43;85.52;103333.75;4105959;28;20017;-64
2023/02/13 10:14:08;;;;;;;;;;;;;;;7.46;85.46;103335.38;4106714;28;20013;-65
2023/02/13 10:16:12;;;;;;;;;;;;;;;7.46;85.13;103335.38;4105499;28;20393;-65
2023/02/13 10:18:14;;;;;;;;;;;;;;;7.47;85.07;103335.28;4105706;28;20029;-65
2023/02/13 10:20:18;;;;;;;;;;;;;;;7.48;84.89;103341.53;4104728;28;20030;-64
2023/02/13 10:22:21;;;;;;;;;;;;;;;7.49;84.83;103337.88;4106218;28;20021;-65
2023/02/13 10:24:26;;;;;;;;;;;;;;;7.49;85.13;103333.38;4106037;28;20676;-65
2023/02/13 10:26:41;;;;;;;;;;;;;;;7.50;85.15;103326.16;4105573;28;20347;-65
2023/02/13 10:28:44;;;;;;;;;;;;;;;7.50;84.87;103335.09;4105531;28;20030;-65
2023/02/13 10:30:48;;;;;;;;;;;;;;;7.51;84.98;103323.38;4105042;28;20029;-65
2023/02/13 10:32:51;;;;;;;;;;;;;;;7.52;84.85;103325.13;4105739;28;20033;-65
2023/02/13 10:34:53;;;;;;;;;;;;;;;7.53;84.92;103317.91;4104522;28;20013;-65
2023/02/13 10:36:55;;;;;;;;;;;;;;;7.53;85.16;103329.53;4105474;28;20033;-64
2023/02/13 10:38:59;;;;;;;;;;;;;;;7.54;84.97;103333.09;4105578;28;20013;-63
2023/02/13 10:41:05;;;;;;;;;;;;;;;7.54;85.03;103328.56;4105486;28;20021;-64
2023/02/13 10:43:09;;;;;;;;;;;;;;;7.55;84.77;103322.25;4105169;28;20033;-64
2023/02/13 10:45:29;;;;;;;;;;;;;;;7.56;84.88;103315.88;4103631;28;20037;-64
2023/02/13 10:47:35;;;;;;;;;;;;;;;7.59;84.94;103314.84;4104783;28;20021;-64
2023/02/13 10:49:49;;;;;;;;;;;;;;;7.60;84.66;103319.25;4104266;28;20009;-64
2023/02/13 10:51:52;;;;;;;;;;;;;;;7.60;84.55;103316.56;4105393;28;20017;-64
2023/02/13 10:53:58;;;;;;;;;;;;;;;7.61;84.68;103307.53;4105215;28;20021;-63
2023/02/13 10:56:03;;;;;;;;;;;;;;;7.62;84.84;103311.09;4104801;28;20016;-64
2023/02/13 10:58:07;;;;;;;;;;;;;;;7.61;84.78;103309.38;4105585;28;20030;-64
2023/02/13 11:00:12;;;;;;;;;;;;;;;7.61;84.98;103302.16;4105163;28;20014;-64
2023/02/13 11:02:20;;;;;;;;;;;;;;;7.61;84.79;103304.84;4105404;28;20009;-64
2023/02/13 11:04:22;;;;;;;;;;;;;;;7.62;84.67;103305.69;4104939;28;20460;-64
2023/02/13 11:06:24;;;;;;;;;;;;;;;7.63;84.76;103302.06;4105914;28;20021;-64
2023/02/13 11:08:26;;;;;;;;;;;;;;;7.62;85.09;103300.31;4106432;28;20017;-64
2023/02/13 11:10:31;;;;;;;;;;;;;;;7.61;85.03;103302.16;4104248;28;20021;-64
2023/02/13 11:12:33;;;;;;;;;;;;;;;7.63;84.81;103296.69;4105860;28;20320;-65
2023/02/13 11:14:35;;;;;;;;;;;;;;;7.62;84.65;103298.53;4105121;28;20452;-64
2023/02/13 11:16:40;;;;;;;;;;;;;;;7.63;84.99;103296.69;4105489;28;20347;-64
2023/02/13 11:18:43;;;;;;;;;;;;;;;7.63;84.63;103300.22;4104696;28;20025;-64
2023/02/13 11:20:46;;;;;;;;;;;;;;;7.63;84.59;103302.06;4104440;28;20009;-65
2023/02/13 11:22:48;;;;;;;;;;;;;;;7.64;84.78;103298.44;4103658;28;20021;-64